createdAt,value
2023-05-13T00:01:16.524Z,2.17
2023-05-13T00:03:44.771Z,2.80
2023-05-13T00:06:12.951Z,2.73
2023-05-13T00:08:40.248Z,2.37
2023-05-13T00:11:08.111Z,2.10
2023-05-13T00:13:35.518Z,2.73
2023-05-13T00:16:03.757Z,6.00
2023-05-13T00:18:31.308Z,4.75
2023-05-13T00:20:58.631Z,5.63
2023-05-13T00:23:25.851Z,5.30
2023-05-13T00:25:53.441Z,5.60
2023-05-13T00:28:21.333Z,5.00
2023-05-13T00:30:49.333Z,5.07
2023-05-13T00:33:17.424Z,3.67
2023-05-13T00:35:44.688Z,2.80
2023-05-13T00:38:12.007Z,3.27
2023-05-13T00:40:39.828Z,2.30
2023-05-13T00:43:07.121Z,2.47
2023-05-13T00:45:37.166Z,2.20
2023-05-13T00:48:06.987Z,2.53
2023-05-13T00:50:34.820Z,2.77
2023-05-13T00:53:04.162Z,1.90
2023-05-13T00:55:31.869Z,2.50
2023-05-13T00:58:01.150Z,1.92
2023-05-13T01:00:31.924Z,2.00
2023-05-13T01:03:35.348Z,2.20
2023-05-13T01:06:08.994Z,2.30
2023-05-13T01:08:58.321Z,2.07
2023-05-13T01:11:33.599Z,2.05
2023-05-13T01:14:26.163Z,2.07
2023-05-13T01:16:59.449Z,2.10
2023-05-13T01:19:42.144Z,2.27
2023-05-13T01:22:09.618Z,2.10
2023-05-13T01:24:37.285Z,2.37
2023-05-13T01:27:05.991Z,2.23
2023-05-13T01:29:34.726Z,2.57
2023-05-13T01:32:03.599Z,2.20
2023-05-13T01:34:31.810Z,2.17
2023-05-13T01:37:00.173Z,2.17
2023-05-13T01:39:29.060Z,2.40
2023-05-13T01:41:57.352Z,2.08
2023-05-13T01:44:25.144Z,2.20
2023-05-13T01:46:53.833Z,2.30
2023-05-13T01:49:21.631Z,2.00
2023-05-13T01:51:48.947Z,2.60
2023-05-13T01:54:16.618Z,2.40
2023-05-13T01:56:46.086Z,3.05
2023-05-13T01:59:13.416Z,2.27
2023-05-13T02:01:41.306Z,3.63
2023-05-13T02:04:08.972Z,2.30
2023-05-13T02:06:36.390Z,2.40
2023-05-13T02:09:03.749Z,2.37
2023-05-13T02:11:31.407Z,3.17
2023-05-13T02:13:59.004Z,2.27
2023-05-13T02:16:26.314Z,2.30
2023-05-13T02:18:54.524Z,2.80
2023-05-13T02:21:27.296Z,2.30
2023-05-13T02:23:54.584Z,2.57
2023-05-13T02:26:22.404Z,2.57
2023-05-13T02:28:50.252Z,2.20
2023-05-13T02:31:17.541Z,2.53
2023-05-13T02:33:45.317Z,2.27
2023-05-13T02:36:13.891Z,2.40
2023-05-13T02:38:41.969Z,2.30
2023-05-13T02:41:11.447Z,1.85
2023-05-13T02:46:08.905Z,2.50
2023-05-13T02:48:36.169Z,2.57
2023-05-13T02:51:03.790Z,2.57
2023-05-13T02:53:31.034Z,2.60
2023-05-13T02:55:59.440Z,2.10
2023-05-13T02:58:27.060Z,2.20
2023-05-13T03:00:54.559Z,2.67
2023-05-13T03:03:23.518Z,2.83
2023-05-13T03:05:52.492Z,2.35
2023-05-13T03:08:19.900Z,2.60
2023-05-13T03:10:47.223Z,2.03
2023-05-13T03:13:15.029Z,2.37
2023-05-13T03:15:44.360Z,2.83
2023-05-13T03:18:12.350Z,2.57
2023-05-13T03:20:40.242Z,3.00
2023-05-13T03:23:08.251Z,4.20
2023-05-13T03:25:35.893Z,3.80
2023-05-13T03:28:04.183Z,3.20
2023-05-13T03:30:32.131Z,3.42
2023-05-13T03:33:00.046Z,3.10
2023-05-13T03:35:27.797Z,3.20
2023-05-13T03:37:55.845Z,4.33
2023-05-13T03:40:23.373Z,4.80
2023-05-13T03:42:51.984Z,3.30
2023-05-13T03:45:19.958Z,2.70
2023-05-13T03:47:48.051Z,3.97
2023-05-13T03:50:16.068Z,3.80
2023-05-13T03:52:45.528Z,3.50
2023-05-13T03:55:15.299Z,2.97
2023-05-13T03:57:48.355Z,3.37
2023-05-13T04:00:16.642Z,3.60
2023-05-13T04:02:44.020Z,4.07
2023-05-13T04:05:13.946Z,4.80
2023-05-13T04:10:09.359Z,4.60
2023-05-13T04:12:37.631Z,3.63
2023-05-13T04:15:05.371Z,4.23
2023-05-13T04:17:32.813Z,4.20
2023-05-13T04:20:00.681Z,3.27
2023-05-13T04:22:28.949Z,2.93
2023-05-13T04:24:57.371Z,2.97
2023-05-13T04:27:25.874Z,3.00
2023-05-13T04:29:53.625Z,3.12
2023-05-13T04:32:24.044Z,3.00
2023-05-13T04:34:53.352Z,3.07
2023-05-13T04:39:48.812Z,3.67
2023-05-13T04:42:17.116Z,3.87
2023-05-13T04:44:44.455Z,3.73
2023-05-13T04:47:11.936Z,4.07
2023-05-13T04:49:39.611Z,3.93
2023-05-13T04:52:07.350Z,5.67
2023-05-13T04:54:36.114Z,9.30
2023-05-13T04:57:03.880Z,10.45
2023-05-13T04:59:31.514Z,15.00
2023-05-13T05:01:59.112Z,10.90
2023-05-13T05:04:27.841Z,9.47
2023-05-13T05:06:55.589Z,7.22
2023-05-13T05:09:22.963Z,5.93
2023-05-13T05:11:51.731Z,5.47
2023-05-13T05:14:20.454Z,4.70
2023-05-13T05:16:48.814Z,5.32
2023-05-13T05:19:16.534Z,4.17
2023-05-13T05:21:43.892Z,4.37
2023-05-13T05:24:11.782Z,4.00
2023-05-13T05:26:41.074Z,3.53
2023-05-13T05:29:09.984Z,3.10
2023-05-13T05:31:37.610Z,3.03
2023-05-13T05:34:05.563Z,2.73
2023-05-13T05:36:33.676Z,3.10
2023-05-13T05:39:03.170Z,3.10
2023-05-13T05:41:31.345Z,3.15
2023-05-13T05:43:58.812Z,4.47
2023-05-13T05:46:26.434Z,3.57
2023-05-13T05:48:55.212Z,3.40
2023-05-13T05:51:23.063Z,3.50
2023-05-13T05:53:50.646Z,3.30
2023-05-13T05:56:18.275Z,3.10
2023-05-13T05:58:45.814Z,3.67
2023-05-13T06:01:13.343Z,3.83
2023-05-13T06:03:41.170Z,3.70
2023-05-13T06:06:08.765Z,4.50
2023-05-13T06:08:36.424Z,3.70
2023-05-13T06:11:04.173Z,3.90
2023-05-13T06:13:31.588Z,3.73
2023-05-13T06:15:59.023Z,3.63
2023-05-13T06:18:26.989Z,3.67
2023-05-13T06:20:54.355Z,3.87
2023-05-13T06:23:21.678Z,3.37
2023-05-13T06:25:52.007Z,3.70
2023-05-13T06:28:19.588Z,4.00
2023-05-13T06:30:47.009Z,4.10
2023-05-13T06:33:14.806Z,4.23
2023-05-13T06:35:42.245Z,3.40
2023-05-13T06:38:10.472Z,10.00
2023-05-13T06:40:39.464Z,4.35
2023-05-13T06:43:07.032Z,4.00
2023-05-13T06:45:36.987Z,3.97
2023-05-13T06:48:04.945Z,4.50
2023-05-13T06:50:33.016Z,5.27
2023-05-13T06:53:00.374Z,4.87
2023-05-13T06:55:28.186Z,4.90
2023-05-13T06:57:55.747Z,3.57
2023-05-13T07:00:24.100Z,3.83
2023-05-13T07:02:53.070Z,4.00
2023-05-13T07:05:21.276Z,4.47
2023-05-13T07:07:48.749Z,4.10
2023-05-13T07:10:16.596Z,4.93
2023-05-13T07:12:44.081Z,3.80
2023-05-13T07:15:11.586Z,4.60
2023-05-13T07:17:40.074Z,4.97
2023-05-13T07:20:08.976Z,4.97
2023-05-13T07:22:36.363Z,4.55
2023-05-13T07:25:04.360Z,4.37
2023-05-13T07:27:31.831Z,3.90
2023-05-13T07:29:59.211Z,3.53
2023-05-13T07:32:26.944Z,3.37
2023-05-13T07:34:54.435Z,4.03
2023-05-13T07:37:21.667Z,4.57
2023-05-13T07:39:49.791Z,4.20
2023-05-13T07:42:17.107Z,4.53
2023-05-13T07:44:44.338Z,4.27
2023-05-13T07:47:13.616Z,4.90
2023-05-13T07:49:41.230Z,5.10
2023-05-13T07:52:08.993Z,4.57
2023-05-13T07:54:37.318Z,4.40
2023-05-13T07:57:04.822Z,3.60
2023-05-13T07:59:32.224Z,4.30
2023-05-13T08:01:59.937Z,5.90
2023-05-13T08:04:27.953Z,4.67
2023-05-13T08:06:55.338Z,3.40
2023-05-13T08:09:22.657Z,4.73
2023-05-13T08:11:50.457Z,4.27
2023-05-13T08:14:17.863Z,4.17
2023-05-13T08:16:45.390Z,5.03
2023-05-13T08:19:16.505Z,6.03
2023-05-13T08:21:44.727Z,6.23
2023-05-13T08:24:12.644Z,8.17
2023-05-13T08:26:40.362Z,7.20
2023-05-13T08:29:08.256Z,5.93
2023-05-13T08:31:35.763Z,6.07
2023-05-13T08:34:03.387Z,5.90
2023-05-13T08:36:31.000Z,6.57
2023-05-13T08:38:58.427Z,6.80
2023-05-13T08:41:26.970Z,6.03
2023-05-13T08:43:58.079Z,6.43
2023-05-13T08:46:28.077Z,5.90
2023-05-13T08:48:56.214Z,4.57
2023-05-13T08:51:24.394Z,4.70
2023-05-13T08:53:53.900Z,3.47
2023-05-13T08:56:24.546Z,5.00
2023-05-13T08:58:52.240Z,3.40
2023-05-13T09:01:19.819Z,3.60
2023-05-13T09:04:08.808Z,3.17
2023-05-13T09:06:36.592Z,3.58
2023-05-13T09:09:05.276Z,3.70
2023-05-13T09:11:34.137Z,3.12
2023-05-13T09:14:07.859Z,3.80
2023-05-13T09:16:36.834Z,3.92
2023-05-13T09:19:06.627Z,2.97
2023-05-13T09:21:38.425Z,3.35
2023-05-13T09:24:11.541Z,3.03
2023-05-13T09:26:40.687Z,3.50
2023-05-13T09:29:24.732Z,3.15
2023-05-13T09:32:00.382Z,3.47
2023-05-13T09:34:35.318Z,3.00
2023-05-13T09:37:04.845Z,3.25
2023-05-13T09:39:34.983Z,3.33
2023-05-13T09:42:04.663Z,3.53
2023-05-13T09:44:34.206Z,3.10
2023-05-13T09:47:02.734Z,3.35
2023-05-13T09:49:31.964Z,3.92
2023-05-13T09:51:59.590Z,3.22
2023-05-13T09:54:29.511Z,3.10
2023-05-13T09:57:01.734Z,2.80
2023-05-13T09:59:33.976Z,2.15
2023-05-13T10:02:05.107Z,2.28
2023-05-13T10:04:33.280Z,1.92
2023-05-13T10:07:03.580Z,1.77
2023-05-13T10:09:38.915Z,1.87
2023-05-13T10:12:09.061Z,2.12
2023-05-13T10:14:38.255Z,2.67
2023-05-13T10:17:06.720Z,2.10
2023-05-13T10:19:35.431Z,2.40
2023-05-13T10:22:03.197Z,2.87
2023-05-13T10:24:30.866Z,2.53
2023-05-13T10:27:01.992Z,2.43
2023-05-13T10:29:29.888Z,2.40
2023-05-13T10:32:00.132Z,2.53
2023-05-13T10:34:29.321Z,2.50
2023-05-13T10:37:25.279Z,2.20
2023-05-13T10:40:12.664Z,2.33
2023-05-13T10:42:42.907Z,2.03
2023-05-13T10:45:11.740Z,2.30
2023-05-13T10:47:39.458Z,2.40
2023-05-13T10:50:22.551Z,5.95
2023-05-13T10:52:51.381Z,3.58
2023-05-13T10:55:21.268Z,3.30
2023-05-13T10:58:15.263Z,2.92
2023-05-13T11:00:45.095Z,3.35
2023-05-13T11:03:15.193Z,3.40
2023-05-13T11:05:58.701Z,3.17
2023-05-13T11:08:55.726Z,3.53
2023-05-13T11:11:31.135Z,3.08
2023-05-13T11:14:27.381Z,3.70
2023-05-13T11:17:01.258Z,4.43
2023-05-13T11:19:35.438Z,3.20
2023-05-13T11:22:13.248Z,3.08
2023-05-13T11:24:41.619Z,4.32
2023-05-13T11:27:17.851Z,3.45
2023-05-13T11:29:55.451Z,6.25
2023-05-13T11:32:48.476Z,3.00
2023-05-13T11:35:20.963Z,3.80
2023-05-13T11:37:51.405Z,3.00
2023-05-13T11:40:30.765Z,3.12
2023-05-13T11:42:59.412Z,2.30
2023-05-13T11:45:28.026Z,3.00
2023-05-13T11:47:56.281Z,2.60
2023-05-13T11:50:30.546Z,5.10
2023-05-13T11:52:59.842Z,25.98
2023-05-13T11:55:31.621Z,5.55
2023-05-13T11:57:59.855Z,3.45
2023-05-13T12:00:36.546Z,3.42
2023-05-13T12:03:11.950Z,4.62
2023-05-13T12:05:40.320Z,2.92
2023-05-13T12:08:12.560Z,2.85
2023-05-13T12:10:44.226Z,3.28
2023-05-13T12:13:12.554Z,2.85
2023-05-13T12:15:41.427Z,3.07
2023-05-13T12:20:36.858Z,2.97
2023-05-13T12:23:05.408Z,3.15
2023-05-13T12:25:33.105Z,3.03
2023-05-13T12:28:12.573Z,3.40
2023-05-13T12:30:42.128Z,3.03
2023-05-13T12:33:17.897Z,3.05
2023-05-13T12:35:49.925Z,2.70
2023-05-13T12:38:21.478Z,2.58
2023-05-13T12:40:49.780Z,8.82
2023-05-13T12:43:20.976Z,3.15
2023-05-13T12:45:56.700Z,2.60
2023-05-13T12:48:25.712Z,2.75
2023-05-13T12:50:53.517Z,2.50
2023-05-13T12:53:21.510Z,2.60
2023-05-13T12:55:48.916Z,2.80
2023-05-13T12:58:16.742Z,2.60
2023-05-13T13:00:44.135Z,2.55
2023-05-13T13:03:11.625Z,3.10
2023-05-13T13:05:39.462Z,2.90
2023-05-13T13:08:06.739Z,2.67
2023-05-13T13:10:34.165Z,2.72
2023-05-13T13:13:02.047Z,2.70
2023-05-13T13:15:29.411Z,2.60
2023-05-13T13:17:57.001Z,3.20
2023-05-13T13:20:24.769Z,2.90
2023-05-13T13:22:53.872Z,2.70
2023-05-13T13:25:21.377Z,3.03
2023-05-13T13:27:49.293Z,2.78
2023-05-13T13:30:16.604Z,2.22
2023-05-13T13:32:44.063Z,2.72
2023-05-13T13:35:11.874Z,2.47
2023-05-13T13:37:39.477Z,2.72
2023-05-13T13:40:07.309Z,3.03
2023-05-13T13:42:44.075Z,2.60
2023-05-13T13:45:14.036Z,2.85
2023-05-13T13:47:42.192Z,3.08
2023-05-13T13:50:10.186Z,3.05
2023-05-13T13:52:37.531Z,3.10
2023-05-13T13:55:05.696Z,2.45
2023-05-13T13:57:33.043Z,2.72
2023-05-13T14:00:00.376Z,2.62
2023-05-13T14:02:28.199Z,2.25
2023-05-13T14:04:55.942Z,3.10
2023-05-13T14:07:23.308Z,2.67
2023-05-13T14:09:50.816Z,2.40
2023-05-13T14:12:18.657Z,3.25
2023-05-13T14:14:46.029Z,3.15
2023-05-13T14:17:14.398Z,2.50
2023-05-13T14:19:42.667Z,3.55
2023-05-13T14:22:10.294Z,2.92
2023-05-13T14:24:37.584Z,3.50
2023-05-13T14:27:05.717Z,3.47
2023-05-13T14:29:33.336Z,2.85
2023-05-13T14:32:03.059Z,2.20
2023-05-13T14:34:30.774Z,2.45
2023-05-13T14:36:58.060Z,2.53
2023-05-13T14:39:25.445Z,2.17
2023-05-13T14:41:53.206Z,2.50
2023-05-13T14:44:20.897Z,2.30
2023-05-13T14:46:48.256Z,2.70
2023-05-13T14:49:15.855Z,2.83
2023-05-13T14:51:43.368Z,2.47
2023-05-13T14:54:11.097Z,2.85
2023-05-13T14:56:39.000Z,2.90
2023-05-13T14:59:06.353Z,3.03
2023-05-13T15:01:34.696Z,3.25
2023-05-13T15:04:02.429Z,3.08
2023-05-13T15:06:29.844Z,2.67
2023-05-13T15:08:57.692Z,2.75
2023-05-13T15:11:29.849Z,3.58
2023-05-13T15:13:57.313Z,2.75
2023-05-13T15:16:24.934Z,3.80
2023-05-13T15:18:52.777Z,2.75
2023-05-13T15:21:20.084Z,2.83
2023-05-13T15:23:47.702Z,3.15
2023-05-13T15:26:15.492Z,5.00
2023-05-13T15:28:42.755Z,4.57
2023-05-13T15:31:10.576Z,4.05
2023-05-13T15:33:37.954Z,3.25
2023-05-13T15:36:06.385Z,2.75
2023-05-13T15:38:34.305Z,2.25
2023-05-13T15:41:03.554Z,3.00
2023-05-13T15:43:32.036Z,2.78
2023-05-13T15:46:01.121Z,2.50
2023-05-13T15:48:29.865Z,2.40
2023-05-13T15:50:57.264Z,2.50
2023-05-13T15:53:24.885Z,6.30
2023-05-13T15:55:52.577Z,6.00
2023-05-13T15:58:19.965Z,5.07
2023-05-13T16:00:47.595Z,3.80
2023-05-13T16:03:17.158Z,3.40
2023-05-13T16:05:44.749Z,2.50
2023-05-13T16:08:12.055Z,2.72
2023-05-13T16:10:39.845Z,2.92
2023-05-13T16:13:07.449Z,5.50
2023-05-13T16:15:34.845Z,4.95
2023-05-13T16:18:02.676Z,3.30
2023-05-13T16:20:30.045Z,3.25
2023-05-13T16:22:57.412Z,3.27
2023-05-13T16:25:25.136Z,3.33
2023-05-13T16:27:52.492Z,3.17
2023-05-13T16:30:20.282Z,5.83
2023-05-13T16:32:53.103Z,3.58
2023-05-13T16:35:21.496Z,3.43
2023-05-13T16:37:50.227Z,3.17
2023-05-13T16:40:17.666Z,3.10
2023-05-13T16:42:46.495Z,2.43
2023-05-13T16:45:14.189Z,3.50
2023-05-13T16:47:41.824Z,4.90
2023-05-13T16:50:09.599Z,23.53
2023-05-13T16:52:37.243Z,43.30
2023-05-13T16:55:04.949Z,22.90
2023-05-13T16:57:32.870Z,5.67
2023-05-13T17:00:00.697Z,6.65
2023-05-13T17:02:28.025Z,5.17
2023-05-13T17:04:55.778Z,3.50
2023-05-13T17:07:24.340Z,5.55
2023-05-13T17:09:51.977Z,3.47
2023-05-13T17:12:19.465Z,2.90
2023-05-13T17:14:47.128Z,3.27
2023-05-13T17:17:14.574Z,3.13
2023-05-13T17:19:42.454Z,3.20
2023-05-13T17:22:10.206Z,4.40
2023-05-13T17:24:38.773Z,3.83
2023-05-13T17:27:06.889Z,4.45
2023-05-13T17:29:34.821Z,3.85
2023-05-13T17:32:02.172Z,4.83
2023-05-13T17:34:29.623Z,4.27
2023-05-13T17:36:57.522Z,6.18
2023-05-13T17:39:24.900Z,7.63
2023-05-13T17:41:52.343Z,9.47
2023-05-13T17:44:20.538Z,12.13
2023-05-13T17:46:47.819Z,6.83
2023-05-13T17:49:15.305Z,6.20
2023-05-13T17:51:43.533Z,4.53
2023-05-13T17:54:11.604Z,3.80
2023-05-13T17:56:39.026Z,6.32
2023-05-13T17:59:07.472Z,9.53
2023-05-13T18:01:35.285Z,6.55
2023-05-13T18:04:03.351Z,6.20
2023-05-13T18:06:31.386Z,5.80
2023-05-13T18:08:58.949Z,5.17
2023-05-13T18:11:26.892Z,4.90
2023-05-13T18:13:54.297Z,4.90
2023-05-13T18:16:22.265Z,3.70
2023-05-13T18:18:50.006Z,4.32
2023-05-13T18:21:17.443Z,3.80
2023-05-13T18:23:47.080Z,4.00
2023-05-13T18:26:15.278Z,4.73
2023-05-13T18:28:45.133Z,5.43
2023-05-13T18:31:12.495Z,4.83
2023-05-13T18:33:40.496Z,4.07
2023-05-13T18:36:10.115Z,4.63
2023-05-13T18:38:39.819Z,3.50
2023-05-13T18:41:07.612Z,4.30
2023-05-13T18:43:34.968Z,4.90
2023-05-13T18:46:02.350Z,4.27
2023-05-13T18:48:29.988Z,4.60
2023-05-13T18:50:57.518Z,4.90
2023-05-13T18:53:24.944Z,5.10
2023-05-13T18:55:52.788Z,4.73
2023-05-13T18:58:20.141Z,6.43
2023-05-13T19:00:47.545Z,7.13
2023-05-13T19:03:15.570Z,5.70
2023-05-13T19:05:43.045Z,4.53
2023-05-13T19:08:10.475Z,5.30
2023-05-13T19:10:40.118Z,4.90
2023-05-13T19:13:09.631Z,4.97
2023-05-13T19:15:37.145Z,3.90
2023-05-13T19:18:04.988Z,3.97
2023-05-13T19:20:32.410Z,4.03
2023-05-13T19:22:59.830Z,4.07
2023-05-13T19:25:27.606Z,4.50
2023-05-13T19:27:55.032Z,4.60
2023-05-13T19:30:22.869Z,4.20
2023-05-13T19:32:50.775Z,4.45
2023-05-13T19:35:18.320Z,4.70
2023-05-13T19:37:45.831Z,6.70
2023-05-13T19:40:13.625Z,5.00
2023-05-13T19:42:40.913Z,5.93
2023-05-13T19:45:10.671Z,4.90
2023-05-13T19:47:38.912Z,5.13
2023-05-13T19:50:06.765Z,10.17
2023-05-13T19:52:34.275Z,10.60
2023-05-13T19:55:02.129Z,15.30
2023-05-13T19:57:30.135Z,17.93
2023-05-13T19:59:58.917Z,14.52
2023-05-13T20:02:26.850Z,22.02
2023-05-13T20:04:56.538Z,15.33
2023-05-13T20:07:23.989Z,14.37
2023-05-13T20:09:51.543Z,22.23
2023-05-13T20:12:19.319Z,23.60
2023-05-13T20:14:48.475Z,26.40
2023-05-13T20:19:49.737Z,19.60
2023-05-13T20:22:18.610Z,23.17
2023-05-13T20:24:48.048Z,21.30
2023-05-13T20:29:45.648Z,4.32
2023-05-13T20:32:14.363Z,3.57
2023-05-13T20:34:42.297Z,4.25
2023-05-13T20:37:12.183Z,3.30
2023-05-13T20:39:40.090Z,4.27
2023-05-13T20:42:07.562Z,3.27
2023-05-13T20:44:34.972Z,3.13
2023-05-13T20:47:02.760Z,3.00
2023-05-13T20:49:30.222Z,3.43
2023-05-13T20:52:03.659Z,3.17
2023-05-13T20:54:31.512Z,3.10
2023-05-13T20:57:00.668Z,2.87
2023-05-13T21:01:55.938Z,3.67
2023-05-13T21:04:23.410Z,3.50
2023-05-13T21:06:50.788Z,3.73
2023-05-13T21:09:18.426Z,4.10
2023-05-13T21:11:46.201Z,3.53
2023-05-13T21:14:13.686Z,3.57
2023-05-13T21:16:41.375Z,3.77
2023-05-13T21:19:08.804Z,3.90
2023-05-13T21:21:36.159Z,3.13
2023-05-13T21:24:03.958Z,3.13
2023-05-13T21:26:31.273Z,3.00
2023-05-13T21:28:58.609Z,3.43
2023-05-13T21:31:26.326Z,3.63
2023-05-13T21:33:53.688Z,3.50
2023-05-13T21:36:20.916Z,2.87
2023-05-13T21:38:48.557Z,3.00
2023-05-13T21:41:15.856Z,3.17
2023-05-13T21:43:43.019Z,3.47
2023-05-13T21:46:10.664Z,3.83
2023-05-13T21:48:38.230Z,12.40
2023-05-13T21:51:06.193Z,11.13
2023-05-13T21:53:34.084Z,11.27
2023-05-13T21:56:01.308Z,11.53
2023-05-13T21:58:28.487Z,9.97
2023-05-13T22:00:56.840Z,4.73
2023-05-13T22:03:24.565Z,3.45
2023-05-13T22:05:51.807Z,3.17
2023-05-13T22:08:19.154Z,3.40
2023-05-13T22:10:46.992Z,3.20
2023-05-13T22:13:14.343Z,3.10
2023-05-13T22:15:41.748Z,3.13
2023-05-13T22:18:09.724Z,3.20
2023-05-13T22:20:37.188Z,2.90
2023-05-13T22:23:04.494Z,2.97
2023-05-13T22:25:32.102Z,3.13
2023-05-13T22:27:59.406Z,3.10
2023-05-13T22:30:26.891Z,3.10
2023-05-13T22:32:55.973Z,3.07
2023-05-13T22:35:23.350Z,3.08
2023-05-13T22:37:52.780Z,3.40
2023-05-13T22:40:20.876Z,2.77
2023-05-13T22:42:48.392Z,3.10
2023-05-13T22:45:15.765Z,3.67
2023-05-13T22:47:43.317Z,3.10
2023-05-13T22:50:12.431Z,2.90
2023-05-13T22:55:07.978Z,2.80
2023-05-13T22:57:35.233Z,2.60
2023-05-13T23:00:02.499Z,2.77
2023-05-13T23:02:30.098Z,3.13
2023-05-13T23:04:57.376Z,3.00
2023-05-13T23:07:24.693Z,3.97
2023-05-13T23:09:52.225Z,3.80
2023-05-13T23:12:19.446Z,3.30
2023-05-13T23:14:46.661Z,3.27
2023-05-13T23:17:14.549Z,3.57
2023-05-13T23:19:41.799Z,3.57
2023-05-13T23:22:09.052Z,3.30
2023-05-13T23:24:36.619Z,3.23
2023-05-13T23:27:04.402Z,3.70
2023-05-13T23:29:32.148Z,2.83
2023-05-13T23:31:59.980Z,3.63
2023-05-13T23:34:27.445Z,3.40
2023-05-13T23:36:54.683Z,3.30
2023-05-13T23:39:22.207Z,3.23
2023-05-13T23:41:49.455Z,3.10
2023-05-13T23:44:16.735Z,3.90
2023-05-13T23:46:44.330Z,3.20
2023-05-13T23:49:11.546Z,2.90
2023-05-13T23:51:38.828Z,3.17
2023-05-13T23:54:08.305Z,3.03
2023-05-13T23:59:02.923Z,3.47
